sensor_id;sensor_type;location;lat;lon;timestamp;P1;P2;P0
33264;PMS5003;31404;53.974;-1.086;2023-02-28T00:00:39;3;3;
33264;PMS5003;31404;53.974;-1.086;2023-02-28T00:05:34;2;2;
33264;PMS5003;31404;53.974;-1.086;2023-02-28T00:10:34;0;0;
33264;PMS5003;31404;53.974;-1.086;2023-02-28T00:15:34;9;7;
33264;PMS5003;31404;53.974;-1.086;2023-02-28T00:20:33;2;2;
33264;PMS5003;31404;53.974;-1.086;2023-02-28T00:25:34;2;2;
33264;PMS5003;31404;53.974;-1.086;2023-02-28T00:30:34;10;8;
33264;PMS5003;31404;53.974;-1.086;2023-02-28T00:35:34;1;1;
33264;PMS5003;31404;53.974;-1.086;2023-02-28T00:40:33;4;4;
33264;PMS5003;31404;53.974;-1.086;2023-02-28T00:45:34;9;8;
33264;PMS5003;31404;53.974;-1.086;2023-02-28T00:50:34;7;2;
33264;PMS5003;31404;53.974;-1.086;2023-02-28T00:55:33;0;0;
33264;PMS5003;31404;53.974;-1.086;2023-02-28T01:00:34;1;1;
33264;PMS5003;31404;53.974;-1.086;2023-02-28T01:05:33;2;2;
33264;PMS5003;31404;53.974;-1.086;2023-02-28T01:10:33;2;2;
33264;PMS5003;31404;53.974;-1.086;2023-02-28T01:15:34;3;1;
33264;PMS5003;31404;53.974;-1.086;2023-02-28T01:20:35;3;2;
33264;PMS5003;31404;53.974;-1.086;2023-02-28T01:25:34;0;0;
33264;PMS5003;31404;53.974;-1.086;2023-02-28T01:30:34;1;1;
33264;PMS5003;31404;53.974;-1.086;2023-02-28T01:35:34;0;0;
33264;PMS5003;31404;53.974;-1.086;2023-02-28T01:40:34;2;2;
33264;PMS5003;31404;53.974;-1.086;2023-02-28T01:45:34;1;1;
33264;PMS5003;31404;53.974;-1.086;2023-02-28T01:50:34;1;1;
33264;PMS5003;31404;53.974;-1.086;2023-02-28T01:55:34;1;1;
33264;PMS5003;31404;53.974;-1.086;2023-02-28T02:00:34;0;0;
33264;PMS5003;31404;53.974;-1.086;2023-02-28T02:05:34;0;0;
33264;PMS5003;31404;53.974;-1.086;2023-02-28T02:10:34;1;0;
33264;PMS5003;31404;53.974;-1.086;2023-02-28T02:15:37;0;0;
33264;PMS5003;31404;53.974;-1.086;2023-02-28T02:25:29;1;1;
33264;PMS5003;31404;53.974;-1.086;2023-02-28T02:35:35;0;0;
33264;PMS5003;31404;53.974;-1.086;2023-02-28T02:40:35;0;0;
33264;PMS5003;31404;53.974;-1.086;2023-02-28T02:45:35;0;0;
33264;PMS5003;31404;53.974;-1.086;2023-02-28T02:50:36;1;1;
33264;PMS5003;31404;53.974;-1.086;2023-02-28T02:55:35;1;0;
33264;PMS5003;31404;53.974;-1.086;2023-02-28T03:00:34;0;0;
33264;PMS5003;31404;53.974;-1.086;2023-02-28T03:05:34;0;0;
33264;PMS5003;31404;53.974;-1.086;2023-02-28T03:10:35;0;0;
33264;PMS5003;31404;53.974;-1.086;2023-02-28T03:15:36;1;1;
33264;PMS5003;31404;53.974;-1.086;2023-02-28T03:20:35;1;1;
33264;PMS5003;31404;53.974;-1.086;2023-02-28T03:25:35;2;0;
33264;PMS5003;31404;53.974;-1.086;2023-02-28T03:30:36;1;1;
33264;PMS5003;31404;53.974;-1.086;2023-02-28T03:35:34;0;0;
33264;PMS5003;31404;53.974;-1.086;2023-02-28T03:40:34;0;0;
33264;PMS5003;31404;53.974;-1.086;2023-02-28T03:45:35;2;0;
33264;PMS5003;31404;53.974;-1.086;2023-02-28T03:50:34;0;0;
33264;PMS5003;31404;53.974;-1.086;2023-02-28T03:55:34;1;1;
33264;PMS5003;31404;53.974;-1.086;2023-02-28T04:00:34;0;0;
33264;PMS5003;31404;53.974;-1.086;2023-02-28T04:05:35;1;1;
33264;PMS5003;31404;53.974;-1.086;2023-02-28T04:10:34;1;1;
33264;PMS5003;31404;53.974;-1.086;2023-02-28T04:15:35;1;1;
33264;PMS5003;31404;53.974;-1.086;2023-02-28T04:20:34;3;1;
33264;PMS5003;31404;53.974;-1.086;2023-02-28T04:25:34;2;2;
33264;PMS5003;31404;53.974;-1.086;2023-02-28T04:30:34;1;1;
33264;PMS5003;31404;53.974;-1.086;2023-02-28T04:35:34;3;3;
33264;PMS5003;31404;53.974;-1.086;2023-02-28T04:40:34;4;2;
33264;PMS5003;31404;53.974;-1.086;2023-02-28T04:45:35;3;2;
33264;PMS5003;31404;53.974;-1.086;2023-02-28T04:50:34;3;2;
33264;PMS5003;31404;53.974;-1.086;2023-02-28T04:55:34;5;3;
33264;PMS5003;31404;53.974;-1.086;2023-02-28T05:00:33;5;4;
33264;PMS5003;31404;53.974;-1.086;2023-02-28T05:05:33;6;5;
33264;PMS5003;31404;53.974;-1.086;2023-02-28T05:10:34;4;4;
33264;PMS5003;31404;53.974;-1.086;2023-02-28T05:15:35;2;2;
33264;PMS5003;31404;53.974;-1.086;2023-02-28T05:20:34;1;1;
33264;PMS5003;31404;53.974;-1.086;2023-02-28T05:25:34;0;0;
33264;PMS5003;31404;53.974;-1.086;2023-02-28T05:30:34;1;1;
33264;PMS5003;31404;53.974;-1.086;2023-02-28T05:35:34;2;1;
33264;PMS5003;31404;53.974;-1.086;2023-02-28T05:40:34;3;3;
33264;PMS5003;31404;53.974;-1.086;2023-02-28T05:45:35;4;3;
33264;PMS5003;31404;53.974;-1.086;2023-02-28T05:50:34;3;3;
33264;PMS5003;31404;53.974;-1.086;2023-02-28T05:55:34;4;4;
33264;PMS5003;31404;53.974;-1.086;2023-02-28T06:00:34;6;4;
33264;PMS5003;31404;53.974;-1.086;2023-02-28T06:05:34;6;4;
33264;PMS5003;31404;53.974;-1.086;2023-02-28T06:10:34;7;6;
33264;PMS5003;31404;53.974;-1.086;2023-02-28T06:15:34;4;4;
33264;PMS5003;31404;53.974;-1.086;2023-02-28T06:20:34;5;5;
33264;PMS5003;31404;53.974;-1.086;2023-02-28T06:25:37;7;6;
33264;PMS5003;31404;53.974;-1.086;2023-02-28T06:30:34;4;4;
33264;PMS5003;31404;53.974;-1.086;2023-02-28T06:35:34;6;4;
33264;PMS5003;31404;53.974;-1.086;2023-02-28T06:40:34;12;8;
33264;PMS5003;31404;53.974;-1.086;2023-02-28T06:45:34;5;5;
33264;PMS5003;31404;53.974;-1.086;2023-02-28T06:50:34;6;6;
33264;PMS5003;31404;53.974;-1.086;2023-02-28T06:55:34;8;6;
33264;PMS5003;31404;53.974;-1.086;2023-02-28T07:00:34;5;4;
33264;PMS5003;31404;53.974;-1.086;2023-02-28T07:05:34;4;3;
33264;PMS5003;31404;53.974;-1.086;2023-02-28T07:10:36;3;3;
33264;PMS5003;31404;53.974;-1.086;2023-02-28T07:15:35;4;3;
33264;PMS5003;31404;53.974;-1.086;2023-02-28T07:20:34;6;5;
33264;PMS5003;31404;53.974;-1.086;2023-02-28T07:25:34;7;7;
33264;PMS5003;31404;53.974;-1.086;2023-02-28T07:30:34;6;4;
33264;PMS5003;31404;53.974;-1.086;2023-02-28T07:35:34;4;4;
33264;PMS5003;31404;53.974;-1.086;2023-02-28T07:40:34;11;10;
33264;PMS5003;31404;53.974;-1.086;2023-02-28T07:45:34;7;6;
33264;PMS5003;31404;53.974;-1.086;2023-02-28T07:50:34;8;7;
33264;PMS5003;31404;53.974;-1.086;2023-02-28T07:55:34;7;7;
33264;PMS5003;31404;53.974;-1.086;2023-02-28T08:00:34;6;6;
33264;PMS5003;31404;53.974;-1.086;2023-02-28T08:10:34;4;4;
33264;PMS5003;31404;53.974;-1.086;2023-02-28T08:15:35;6;3;
33264;PMS5003;31404;53.974;-1.086;2023-02-28T08:20:34;5;4;
33264;PMS5003;31404;53.974;-1.086;2023-02-28T08:25:34;6;6;
33264;PMS5003;31404;53.974;-1.086;2023-02-28T08:30:34;10;5;
33264;PMS5003;31404;53.974;-1.086;2023-02-28T08:35:35;7;4;
33264;PMS5003;31404;53.974;-1.086;2023-02-28T08:40:34;6;6;
33264;PMS5003;31404;53.974;-1.086;2023-02-28T08:45:34;4;4;
33264;PMS5003;31404;53.974;-1.086;2023-02-28T08:50:34;2;2;
33264;PMS5003;31404;53.974;-1.086;2023-02-28T08:55:35;2;2;
33264;PMS5003;31404;53.974;-1.086;2023-02-28T09:00:34;3;3;
33264;PMS5003;31404;53.974;-1.086;2023-02-28T09:05:34;3;3;
33264;PMS5003;31404;53.974;-1.086;2023-02-28T09:10:34;6;3;
33264;PMS5003;31404;53.974;-1.086;2023-02-28T09:15:34;3;3;
33264;PMS5003;31404;53.974;-1.086;2023-02-28T09:20:36;5;4;
33264;PMS5003;31404;53.974;-1.086;2023-02-28T09:25:34;5;5;
33264;PMS5003;31404;53.974;-1.086;2023-02-28T09:30:34;4;4;
33264;PMS5003;31404;53.974;-1.086;2023-02-28T09:35:34;3;3;
33264;PMS5003;31404;53.974;-1.086;2023-02-28T09:40:35;1;1;
33264;PMS5003;31404;53.974;-1.086;2023-02-28T09:45:35;1;1;
33264;PMS5003;31404;53.974;-1.086;2023-02-28T09:50:35;3;1;
33264;PMS5003;31404;53.974;-1.086;2023-02-28T09:55:35;3;1;
33264;PMS5003;31404;53.974;-1.086;2023-02-28T10:00:35;3;3;
33264;PMS5003;31404;53.974;-1.086;2023-02-28T10:05:35;3;3;
33264;PMS5003;31404;53.974;-1.086;2023-02-28T10:10:36;5;3;
33264;PMS5003;31404;53.974;-1.086;2023-02-28T10:15:34;7;6;
33264;PMS5003;31404;53.974;-1.086;2023-02-28T10:20:35;7;5;
33264;PMS5003;31404;53.974;-1.086;2023-02-28T10:25:35;8;5;
33264;PMS5003;31404;53.974;-1.086;2023-02-28T10:30:34;1;1;
33264;PMS5003;31404;53.974;-1.086;2023-02-28T10:35:34;5;5;
33264;PMS5003;31404;53.974;-1.086;2023-02-28T10:40:35;5;4;
33264;PMS5003;31404;53.974;-1.086;2023-02-28T10:45:34;5;5;
33264;PMS5003;31404;53.974;-1.086;2023-02-28T10:50:36;7;5;
33264;PMS5003;31404;53.974;-1.086;2023-02-28T10:55:34;4;4;
33264;PMS5003;31404;53.974;-1.086;2023-02-28T11:00:34;4;4;
33264;PMS5003;31404;53.974;-1.086;2023-02-28T11:05:35;7;7;
33264;PMS5003;31404;53.974;-1.086;2023-02-28T11:10:34;4;3;
33264;PMS5003;31404;53.974;-1.086;2023-02-28T11:15:34;4;4;
33264;PMS5003;31404;53.974;-1.086;2023-02-28T11:20:34;0;0;
33264;PMS5003;31404;53.974;-1.086;2023-02-28T11:25:36;0;0;
33264;PMS5003;31404;53.974;-1.086;2023-02-28T11:30:35;0;0;
33264;PMS5003;31404;53.974;-1.086;2023-02-28T11:35:36;0;0;
33264;PMS5003;31404;53.974;-1.086;2023-02-28T11:40:38;1;1;
33264;PMS5003;31404;53.974;-1.086;2023-02-28T11:55:35;2;1;
33264;PMS5003;31404;53.974;-1.086;2023-02-28T12:05:34;0;0;
33264;PMS5003;31404;53.974;-1.086;2023-02-28T12:10:35;0;0;
33264;PMS5003;31404;53.974;-1.086;2023-02-28T12:20:35;0;0;
33264;PMS5003;31404;53.974;-1.086;2023-02-28T12:30:35;0;0;
33264;PMS5003;31404;53.974;-1.086;2023-02-28T12:35:34;1;1;
33264;PMS5003;31404;53.974;-1.086;2023-02-28T12:40:40;0;0;
33264;PMS5003;31404;53.974;-1.086;2023-02-28T12:45:38;0;0;
33264;PMS5003;31404;53.974;-1.086;2023-02-28T12:50:34;1;1;
33264;PMS5003;31404;53.974;-1.086;2023-02-28T12:55:35;1;1;
33264;PMS5003;31404;53.974;-1.086;2023-02-28T13:00:34;1;0;
33264;PMS5003;31404;53.974;-1.086;2023-02-28T13:15:34;1;1;
33264;PMS5003;31404;53.974;-1.086;2023-02-28T13:20:35;2;0;
33264;PMS5003;31404;53.974;-1.086;2023-02-28T13:35:35;0;0;
33264;PMS5003;31404;53.974;-1.086;2023-02-28T13:40:34;2;0;
33264;PMS5003;31404;53.974;-1.086;2023-02-28T13:45:34;1;1;
33264;PMS5003;31404;53.974;-1.086;2023-02-28T13:50:34;2;1;
33264;PMS5003;31404;53.974;-1.086;2023-02-28T13:55:34;2;2;
33264;PMS5003;31404;53.974;-1.086;2023-02-28T14:00:37;1;1;
33264;PMS5003;31404;53.974;-1.086;2023-02-28T14:05:34;3;3;
33264;PMS5003;31404;53.974;-1.086;2023-02-28T14:10:35;1;1;
33264;PMS5003;31404;53.974;-1.086;2023-02-28T14:15:39;1;0;
33264;PMS5003;31404;53.974;-1.086;2023-02-28T14:20:34;0;0;
33264;PMS5003;31404;53.974;-1.086;2023-02-28T14:25:53;0;0;
33264;PMS5003;31404;53.974;-1.086;2023-02-28T14:40:34;0;0;
33264;PMS5003;31404;53.974;-1.086;2023-02-28T14:45:34;1;1;
33264;PMS5003;31404;53.974;-1.086;2023-02-28T14:50:35;0;0;
33264;PMS5003;31404;53.974;-1.086;2023-02-28T14:55:35;1;1;
33264;PMS5003;31404;53.974;-1.086;2023-02-28T15:00:35;1;0;
33264;PMS5003;31404;53.974;-1.086;2023-02-28T15:05:34;0;0;
33264;PMS5003;31404;53.974;-1.086;2023-02-28T15:10:34;0;0;
33264;PMS5003;31404;53.974;-1.086;2023-02-28T15:15:38;0;0;
33264;PMS5003;31404;53.974;-1.086;2023-02-28T15:20:34;0;0;
33264;PMS5003;31404;53.974;-1.086;2023-02-28T15:25:34;0;0;
33264;PMS5003;31404;53.974;-1.086;2023-02-28T15:30:33;0;0;
33264;PMS5003;31404;53.974;-1.086;2023-02-28T15:35:34;0;0;
33264;PMS5003;31404;53.974;-1.086;2023-02-28T15:40:36;0;0;
33264;PMS5003;31404;53.974;-1.086;2023-02-28T15:45:35;0;0;
33264;PMS5003;31404;53.974;-1.086;2023-02-28T15:50:34;0;0;
33264;PMS5003;31404;53.974;-1.086;2023-02-28T15:55:35;1;0;
33264;PMS5003;31404;53.974;-1.086;2023-02-28T16:00:34;1;1;
33264;PMS5003;31404;53.974;-1.086;2023-02-28T16:05:34;0;0;
33264;PMS5003;31404;53.974;-1.086;2023-02-28T16:10:34;0;0;
33264;PMS5003;31404;53.974;-1.086;2023-02-28T16:15:35;2;2;
33264;PMS5003;31404;53.974;-1.086;2023-02-28T16:20:34;2;0;
33264;PMS5003;31404;53.974;-1.086;2023-02-28T16:25:34;2;2;
33264;PMS5003;31404;53.974;-1.086;2023-02-28T16:30:34;2;1;
33264;PMS5003;31404;53.974;-1.086;2023-02-28T16:35:34;2;2;
33264;PMS5003;31404;53.974;-1.086;2023-02-28T16:40:34;1;1;
33264;PMS5003;31404;53.974;-1.086;2023-02-28T16:45:34;2;0;
33264;PMS5003;31404;53.974;-1.086;2023-02-28T16:50:34;0;0;
33264;PMS5003;31404;53.974;-1.086;2023-02-28T16:55:35;5;4;
33264;PMS5003;31404;53.974;-1.086;2023-02-28T17:00:34;1;1;
33264;PMS5003;31404;53.974;-1.086;2023-02-28T17:05:35;0;0;
33264;PMS5003;31404;53.974;-1.086;2023-02-28T17:10:34;4;1;
33264;PMS5003;31404;53.974;-1.086;2023-02-28T17:15:35;2;2;
33264;PMS5003;31404;53.974;-1.086;2023-02-28T17:20:34;1;1;
33264;PMS5003;31404;53.974;-1.086;2023-02-28T17:25:34;0;0;
33264;PMS5003;31404;53.974;-1.086;2023-02-28T17:30:34;1;1;
33264;PMS5003;31404;53.974;-1.086;2023-02-28T17:35:33;2;1;
33264;PMS5003;31404;53.974;-1.086;2023-02-28T17:40:35;5;4;
33264;PMS5003;31404;53.974;-1.086;2023-02-28T17:45:34;11;9;
33264;PMS5003;31404;53.974;-1.086;2023-02-28T17:50:34;9;8;
33264;PMS5003;31404;53.974;-1.086;2023-02-28T17:55:35;6;6;
33264;PMS5003;31404;53.974;-1.086;2023-02-28T18:00:34;1;1;
33264;PMS5003;31404;53.974;-1.086;2023-02-28T18:05:34;1;1;
33264;PMS5003;31404;53.974;-1.086;2023-02-28T18:10:34;3;2;
33264;PMS5003;31404;53.974;-1.086;2023-02-28T18:15:34;1;1;
33264;PMS5003;31404;53.974;-1.086;2023-02-28T18:20:34;4;2;
33264;PMS5003;31404;53.974;-1.086;2023-02-28T18:25:33;3;3;
33264;PMS5003;31404;53.974;-1.086;2023-02-28T18:30:35;3;3;
33264;PMS5003;31404;53.974;-1.086;2023-02-28T18:35:34;2;2;
33264;PMS5003;31404;53.974;-1.086;2023-02-28T18:40:34;2;2;
33264;PMS5003;31404;53.974;-1.086;2023-02-28T18:45:34;2;1;
33264;PMS5003;31404;53.974;-1.086;2023-02-28T18:50:36;4;2;
33264;PMS5003;31404;53.974;-1.086;2023-02-28T18:55:34;2;1;
33264;PMS5003;31404;53.974;-1.086;2023-02-28T19:00:34;1;1;
33264;PMS5003;31404;53.974;-1.086;2023-02-28T19:05:35;2;2;
33264;PMS5003;31404;53.974;-1.086;2023-02-28T19:15:34;7;7;
33264;PMS5003;31404;53.974;-1.086;2023-02-28T19:20:35;3;3;
33264;PMS5003;31404;53.974;-1.086;2023-02-28T19:25:34;4;3;
33264;PMS5003;31404;53.974;-1.086;2023-02-28T19:30:34;2;2;
33264;PMS5003;31404;53.974;-1.086;2023-02-28T19:35:34;2;2;
33264;PMS5003;31404;53.974;-1.086;2023-02-28T19:40:34;1;1;
33264;PMS5003;31404;53.974;-1.086;2023-02-28T19:45:34;2;2;
33264;PMS5003;31404;53.974;-1.086;2023-02-28T19:50:34;1;1;
33264;PMS5003;31404;53.974;-1.086;2023-02-28T19:55:34;9;9;
33264;PMS5003;31404;53.974;-1.086;2023-02-28T20:00:34;6;6;
33264;PMS5003;31404;53.974;-1.086;2023-02-28T20:05:34;5;3;
33264;PMS5003;31404;53.974;-1.086;2023-02-28T20:10:34;4;4;
33264;PMS5003;31404;53.974;-1.086;2023-02-28T20:15:36;4;4;
33264;PMS5003;31404;53.974;-1.086;2023-02-28T20:20:34;3;3;
33264;PMS5003;31404;53.974;-1.086;2023-02-28T20:30:34;9;6;
33264;PMS5003;31404;53.974;-1.086;2023-02-28T20:35:34;2;2;
33264;PMS5003;31404;53.974;-1.086;2023-02-28T20:40:34;5;5;
33264;PMS5003;31404;53.974;-1.086;2023-02-28T20:45:34;1;1;
33264;PMS5003;31404;53.974;-1.086;2023-02-28T20:50:34;3;3;
33264;PMS5003;31404;53.974;-1.086;2023-02-28T20:55:34;5;4;
33264;PMS5003;31404;53.974;-1.086;2023-02-28T21:00:34;1;1;
33264;PMS5003;31404;53.974;-1.086;2023-02-28T21:05:34;4;3;
33264;PMS5003;31404;53.974;-1.086;2023-02-28T21:10:34;3;3;
33264;PMS5003;31404;53.974;-1.086;2023-02-28T21:15:35;2;2;
33264;PMS5003;31404;53.974;-1.086;2023-02-28T21:20:34;3;1;
33264;PMS5003;31404;53.974;-1.086;2023-02-28T21:25:34;3;3;
33264;PMS5003;31404;53.974;-1.086;2023-02-28T21:30:35;5;4;
33264;PMS5003;31404;53.974;-1.086;2023-02-28T21:35:34;3;1;
33264;PMS5003;31404;53.974;-1.086;2023-02-28T21:40:34;5;2;
33264;PMS5003;31404;53.974;-1.086;2023-02-28T21:45:34;3;3;
33264;PMS5003;31404;53.974;-1.086;2023-02-28T21:50:34;2;2;
33264;PMS5003;31404;53.974;-1.086;2023-02-28T21:55:34;2;2;
33264;PMS5003;31404;53.974;-1.086;2023-02-28T22:00:34;3;3;
33264;PMS5003;31404;53.974;-1.086;2023-02-28T22:05:34;5;4;
33264;PMS5003;31404;53.974;-1.086;2023-02-28T22:10:34;4;2;
33264;PMS5003;31404;53.974;-1.086;2023-02-28T22:15:34;6;5;
33264;PMS5003;31404;53.974;-1.086;2023-02-28T22:20:34;14;14;
33264;PMS5003;31404;53.974;-1.086;2023-02-28T22:25:35;7;6;
33264;PMS5003;31404;53.974;-1.086;2023-02-28T22:30:34;2;2;
33264;PMS5003;31404;53.974;-1.086;2023-02-28T22:35:34;4;3;
33264;PMS5003;31404;53.974;-1.086;2023-02-28T22:40:34;10;7;
33264;PMS5003;31404;53.974;-1.086;2023-02-28T22:45:34;9;8;
33264;PMS5003;31404;53.974;-1.086;2023-02-28T22:50:34;5;2;
33264;PMS5003;31404;53.974;-1.086;2023-02-28T22:55:34;2;2;
33264;PMS5003;31404;53.974;-1.086;2023-02-28T23:00:34;3;3;
33264;PMS5003;31404;53.974;-1.086;2023-02-28T23:05:34;4;4;
33264;PMS5003;31404;53.974;-1.086;2023-02-28T23:10:34;4;2;
33264;PMS5003;31404;53.974;-1.086;2023-02-28T23:15:34;2;2;
33264;PMS5003;31404;53.974;-1.086;2023-02-28T23:20:35;1;1;
33264;PMS5003;31404;53.974;-1.086;2023-02-28T23:25:34;1;1;
33264;PMS5003;31404;53.974;-1.086;2023-02-28T23:30:35;2;2;
33264;PMS5003;31404;53.974;-1.086;2023-02-28T23:35:34;3;2;
33264;PMS5003;31404;53.974;-1.086;2023-02-28T23:40:35;2;2;
33264;PMS5003;31404;53.974;-1.086;2023-02-28T23:45:34;1;1;
33264;PMS5003;31404;53.974;-1.086;2023-02-28T23:50:36;1;1;
33264;PMS5003;31404;53.974;-1.086;2023-02-28T23:55:34;0;0;
